sensor_id;sensor_type;location;lat;lon;timestamp;pressure;altitude;pressure_sealevel;temperature;humidity
9746;BME280;4912;50.836;12.958;2023-04-02T00:01:04;96862.28;;;11.31;98.61
9746;BME280;4912;50.836;12.958;2023-04-02T00:06:50;96871.50;;;11.17;98.97
9746;BME280;4912;50.836;12.958;2023-04-02T00:09:34;96870.00;;;11.16;98.69
9746;BME280;4912;50.836;12.958;2023-04-02T00:12:14;96877.00;;;11.11;98.03
9746;BME280;4912;50.836;12.958;2023-04-02T00:14:52;96881.03;;;11.10;98.21
9746;BME280;4912;50.836;12.958;2023-04-02T00:17:24;96884.28;;;11.08;98.12
9746;BME280;4912;50.836;12.958;2023-04-02T00:19:57;96894.06;;;11.04;97.97
9746;BME280;4912;50.836;12.958;2023-04-02T00:22:32;96901.06;;;10.94;97.61
9746;BME280;4912;50.836;12.958;2023-04-02T00:25:11;96903.50;;;10.86;96.95
9746;BME280;4912;50.836;12.958;2023-04-02T00:27:42;96910.81;;;10.84;96.55
9746;BME280;4912;50.836;12.958;2023-04-02T00:30:16;96910.19;;;10.74;95.86
9746;BME280;4912;50.836;12.958;2023-04-02T00:32:46;96910.63;;;10.67;96.63
9746;BME280;4912;50.836;12.958;2023-04-02T00:35:19;96912.59;;;10.61;96.95
9746;BME280;4912;50.836;12.958;2023-04-02T00:37:52;96919.56;;;10.51;97.23
9746;BME280;4912;50.836;12.958;2023-04-02T00:40:25;96919.28;;;10.49;97.31
9746;BME280;4912;50.836;12.958;2023-04-02T00:42:59;96922.50;;;10.42;97.28
9746;BME280;4912;50.836;12.958;2023-04-02T00:45:35;96928.28;;;10.44;97.24
9746;BME280;4912;50.836;12.958;2023-04-02T00:48:21;96925.47;;;10.38;96.48
9746;BME280;4912;50.836;12.958;2023-04-02T00:50:57;96929.69;;;10.34;96.70
9746;BME280;4912;50.836;12.958;2023-04-02T00:53:30;96940.69;;;10.28;96.44
9746;BME280;4912;50.836;12.958;2023-04-02T00:56:02;96940.94;;;10.24;95.91
9746;BME280;4912;50.836;12.958;2023-04-02T00:58:35;96946.66;;;10.21;96.13
9746;BME280;4912;50.836;12.958;2023-04-02T01:01:15;96951.69;;;10.22;96.67
9746;BME280;4912;50.836;12.958;2023-04-02T01:03:56;96948.94;;;10.22;96.55
9746;BME280;4912;50.836;12.958;2023-04-02T01:06:30;96960.00;;;10.22;96.53
9746;BME280;4912;50.836;12.958;2023-04-02T01:09:11;96964.91;;;10.13;95.76
9746;BME280;4912;50.836;12.958;2023-04-02T01:12:12;96964.25;;;10.03;95.20
9746;BME280;4912;50.836;12.958;2023-04-02T01:14:58;96963.91;;;9.96;95.70
9746;BME280;4912;50.836;12.958;2023-04-02T01:17:50;96968.72;;;9.95;95.37
9746;BME280;4912;50.836;12.958;2023-04-02T01:20:56;96965.31;;;9.85;96.17
9746;BME280;4912;50.836;12.958;2023-04-02T01:23:36;96979.59;;;9.84;96.35
9746;BME280;4912;50.836;12.958;2023-04-02T01:26:20;96978.09;;;9.83;95.92
9746;BME280;4912;50.836;12.958;2023-04-02T01:29:08;96979.34;;;9.82;95.99
9746;BME280;4912;50.836;12.958;2023-04-02T01:31:40;96986.03;;;9.75;95.86
9746;BME280;4912;50.836;12.958;2023-04-02T01:34:14;96988.03;;;9.75;96.37
9746;BME280;4912;50.836;12.958;2023-04-02T01:36:53;96991.47;;;9.70;95.98
9746;BME280;4912;50.836;12.958;2023-04-02T01:39:44;96996.44;;;9.66;95.41
9746;BME280;4912;50.836;12.958;2023-04-02T01:42:28;97005.47;;;9.66;95.54
9746;BME280;4912;50.836;12.958;2023-04-02T01:45:09;97011.41;;;9.59;95.31
9746;BME280;4912;50.836;12.958;2023-04-02T01:47:42;97014.94;;;9.60;95.08
9746;BME280;4912;50.836;12.958;2023-04-02T01:50:23;97021.63;;;9.53;95.21
9746;BME280;4912;50.836;12.958;2023-04-02T01:53:00;97021.63;;;9.53;95.04
9746;BME280;4912;50.836;12.958;2023-04-02T01:55:39;97028.56;;;9.49;95.31
9746;BME280;4912;50.836;12.958;2023-04-02T01:58:16;97028.47;;;9.43;95.09
9746;BME280;4912;50.836;12.958;2023-04-02T02:00:56;97037.94;;;9.36;95.28
9746;BME280;4912;50.836;12.958;2023-04-02T02:03:30;97042.41;;;9.34;95.45
9746;BME280;4912;50.836;12.958;2023-04-02T02:06:04;97040.13;;;9.32;95.79
9746;BME280;4912;50.836;12.958;2023-04-02T02:08:38;97045.16;;;9.34;95.42
9746;BME280;4912;50.836;12.958;2023-04-02T02:11:16;97048.31;;;9.27;95.54
9746;BME280;4912;50.836;12.958;2023-04-02T02:13:52;97053.75;;;9.21;95.72
9746;BME280;4912;50.836;12.958;2023-04-02T02:16:28;97059.16;;;9.16;95.63
9746;BME280;4912;50.836;12.958;2023-04-02T02:19:01;97064.69;;;9.16;96.01
9746;BME280;4912;50.836;12.958;2023-04-02T02:21:39;97063.00;;;9.18;95.93
9746;BME280;4912;50.836;12.958;2023-04-02T02:24:17;97082.56;;;9.20;96.42
9746;BME280;4912;50.836;12.958;2023-04-02T02:27:13;97072.97;;;9.16;95.68
9746;BME280;4912;50.836;12.958;2023-04-02T02:30:11;97077.94;;;9.12;95.13
9746;BME280;4912;50.836;12.958;2023-04-02T02:32:53;97089.25;;;8.99;94.88
9746;BME280;4912;50.836;12.958;2023-04-02T02:35:31;97098.75;;;8.98;95.03
9746;BME280;4912;50.836;12.958;2023-04-02T02:38:24;97102.38;;;8.89;95.53
9746;BME280;4912;50.836;12.958;2023-04-02T02:41:18;97104.81;;;8.87;95.86
9746;BME280;4912;50.836;12.958;2023-04-02T02:43:59;97110.91;;;8.91;95.69
9746;BME280;4912;50.836;12.958;2023-04-02T02:46:33;97111.97;;;8.94;95.43
9746;BME280;4912;50.836;12.958;2023-04-02T02:49:14;97121.69;;;8.89;94.40
9746;BME280;4912;50.836;12.958;2023-04-02T02:51:52;97134.09;;;8.85;94.34
9746;BME280;4912;50.836;12.958;2023-04-02T02:54:34;97132.38;;;8.73;93.84
9746;BME280;4912;50.836;12.958;2023-04-02T02:57:08;97136.75;;;8.65;93.67
9746;BME280;4912;50.836;12.958;2023-04-02T02:59:44;97136.44;;;8.62;93.66
9746;BME280;4912;50.836;12.958;2023-04-02T03:02:15;97138.25;;;8.66;92.98
9746;BME280;4912;50.836;12.958;2023-04-02T03:04:51;97141.66;;;8.60;92.48
9746;BME280;4912;50.836;12.958;2023-04-02T03:07:26;97148.41;;;8.59;92.87
9746;BME280;4912;50.836;12.958;2023-04-02T03:10:02;97156.50;;;8.63;92.96
9746;BME280;4912;50.836;12.958;2023-04-02T03:12:42;97158.50;;;8.62;93.22
9746;BME280;4912;50.836;12.958;2023-04-02T03:15:20;97173.22;;;8.59;93.01
9746;BME280;4912;50.836;12.958;2023-04-02T03:17:56;97175.28;;;8.50;92.14
9746;BME280;4912;50.836;12.958;2023-04-02T03:20:38;97179.91;;;8.44;91.76
9746;BME280;4912;50.836;12.958;2023-04-02T03:23:16;97177.34;;;8.40;91.83
9746;BME280;4912;50.836;12.958;2023-04-02T03:25:55;97176.00;;;8.36;90.79
9746;BME280;4912;50.836;12.958;2023-04-02T03:28:31;97189.78;;;8.27;90.92
9746;BME280;4912;50.836;12.958;2023-04-02T03:31:06;97189.97;;;8.23;91.32
9746;BME280;4912;50.836;12.958;2023-04-02T03:33:41;97195.03;;;8.15;90.60
9746;BME280;4912;50.836;12.958;2023-04-02T03:36:21;97196.44;;;8.11;90.97
9746;BME280;4912;50.836;12.958;2023-04-02T03:39:00;97204.84;;;8.07;90.87
9746;BME280;4912;50.836;12.958;2023-04-02T03:41:39;97207.34;;;8.05;91.23
9746;BME280;4912;50.836;12.958;2023-04-02T03:44:21;97212.84;;;8.05;91.33
9746;BME280;4912;50.836;12.958;2023-04-02T03:47:00;97213.63;;;8.06;90.74
9746;BME280;4912;50.836;12.958;2023-04-02T03:49:39;97222.78;;;8.03;90.72
9746;BME280;4912;50.836;12.958;2023-04-02T03:52:21;97235.22;;;7.98;90.87
9746;BME280;4912;50.836;12.958;2023-04-02T03:54:58;97241.19;;;7.97;91.33
9746;BME280;4912;50.836;12.958;2023-04-02T03:57:35;97242.25;;;7.99;91.86
9746;BME280;4912;50.836;12.958;2023-04-02T04:00:14;97248.81;;;8.02;91.63
9746;BME280;4912;50.836;12.958;2023-04-02T04:02:53;97253.41;;;7.96;92.02
9746;BME280;4912;50.836;12.958;2023-04-02T04:05:30;97261.69;;;7.96;91.80
9746;BME280;4912;50.836;12.958;2023-04-02T04:08:12;97266.13;;;7.93;91.73
9746;BME280;4912;50.836;12.958;2023-04-02T04:10:44;97274.53;;;7.90;91.65
9746;BME280;4912;50.836;12.958;2023-04-02T04:13:23;97274.84;;;7.92;92.10
9746;BME280;4912;50.836;12.958;2023-04-02T04:16:02;97285.56;;;7.90;92.29
9746;BME280;4912;50.836;12.958;2023-04-02T04:18:42;97288.66;;;7.82;92.38
9746;BME280;4912;50.836;12.958;2023-04-02T04:21:21;97300.31;;;7.77;92.64
9746;BME280;4912;50.836;12.958;2023-04-02T04:24:33;97307.03;;;7.76;93.10
9746;BME280;4912;50.836;12.958;2023-04-02T04:27:10;97317.13;;;7.70;92.70
9746;BME280;4912;50.836;12.958;2023-04-02T04:29:50;97324.00;;;7.66;92.41
9746;BME280;4912;50.836;12.958;2023-04-02T04:32:27;97319.28;;;7.57;92.33
9746;BME280;4912;50.836;12.958;2023-04-02T04:35:18;97327.84;;;7.50;92.93
9746;BME280;4912;50.836;12.958;2023-04-02T04:37:57;97331.53;;;7.47;93.19
9746;BME280;4912;50.836;12.958;2023-04-02T04:40:36;97339.63;;;7.51;92.98
9746;BME280;4912;50.836;12.958;2023-04-02T04:43:20;97350.47;;;7.54;92.84
9746;BME280;4912;50.836;12.958;2023-04-02T04:46:00;97354.75;;;7.55;92.37
9746;BME280;4912;50.836;12.958;2023-04-02T04:48:35;97365.00;;;7.64;92.26
9746;BME280;4912;50.836;12.958;2023-04-02T04:51:16;97371.88;;;7.68;91.60
9746;BME280;4912;50.836;12.958;2023-04-02T04:53:52;97372.81;;;7.65;90.76
9746;BME280;4912;50.836;12.958;2023-04-02T04:56:30;97381.97;;;7.62;90.60
9746;BME280;4912;50.836;12.958;2023-04-02T04:59:14;97388.84;;;7.67;90.38
9746;BME280;4912;50.836;12.958;2023-04-02T05:01:52;97396.81;;;7.65;90.27
9746;BME280;4912;50.836;12.958;2023-04-02T05:04:30;97396.69;;;7.59;89.72
9746;BME280;4912;50.836;12.958;2023-04-02T05:07:09;97407.53;;;7.63;90.31
9746;BME280;4912;50.836;12.958;2023-04-02T05:09:52;97411.03;;;7.54;89.29
9746;BME280;4912;50.836;12.958;2023-04-02T05:12:34;97424.34;;;7.56;89.61
9746;BME280;4912;50.836;12.958;2023-04-02T05:15:14;97429.84;;;7.56;89.78
9746;BME280;4912;50.836;12.958;2023-04-02T05:17:51;97424.94;;;7.51;89.20
9746;BME280;4912;50.836;12.958;2023-04-02T05:20:31;97437.03;;;7.53;88.86
9746;BME280;4912;50.836;12.958;2023-04-02T05:23:09;97444.66;;;7.49;89.09
9746;BME280;4912;50.836;12.958;2023-04-02T05:25:52;97448.50;;;7.52;89.39
9746;BME280;4912;50.836;12.958;2023-04-02T05:28:32;97452.47;;;7.51;89.35
9746;BME280;4912;50.836;12.958;2023-04-02T05:31:07;97455.53;;;7.53;89.43
9746;BME280;4912;50.836;12.958;2023-04-02T05:33:44;97464.41;;;7.57;89.93
9746;BME280;4912;50.836;12.958;2023-04-02T05:36:19;97464.72;;;7.59;90.61
9746;BME280;4912;50.836;12.958;2023-04-02T05:38:56;97467.00;;;7.60;90.14
9746;BME280;4912;50.836;12.958;2023-04-02T05:41:39;97472.84;;;7.62;89.08
9746;BME280;4912;50.836;12.958;2023-04-02T05:44:27;97478.19;;;7.66;88.68
9746;BME280;4912;50.836;12.958;2023-04-02T05:47:01;97490.13;;;7.63;88.52
9746;BME280;4912;50.836;12.958;2023-04-02T05:49:42;97491.16;;;7.56;87.45
9746;BME280;4912;50.836;12.958;2023-04-02T05:52:22;97494.53;;;7.51;88.07
9746;BME280;4912;50.836;12.958;2023-04-02T05:54:58;97497.28;;;7.51;88.17
9746;BME280;4912;50.836;12.958;2023-04-02T05:57:50;97516.56;;;7.51;88.68
9746;BME280;4912;50.836;12.958;2023-04-02T06:01:04;97517.00;;;7.50;87.78
9746;BME280;4912;50.836;12.958;2023-04-02T06:03:50;97520.63;;;7.37;88.30
9746;BME280;4912;50.836;12.958;2023-04-02T06:06:39;97531.34;;;7.35;88.22
9746;BME280;4912;50.836;12.958;2023-04-02T06:09:17;97539.28;;;7.33;88.14
9746;BME280;4912;50.836;12.958;2023-04-02T06:11:59;97545.53;;;7.34;87.36
9746;BME280;4912;50.836;12.958;2023-04-02T06:14:33;97553.63;;;7.28;87.48
9746;BME280;4912;50.836;12.958;2023-04-02T06:17:09;97564.19;;;7.30;87.90
9746;BME280;4912;50.836;12.958;2023-04-02T06:19:42;97565.84;;;7.27;87.97
9746;BME280;4912;50.836;12.958;2023-04-02T06:22:22;97570.00;;;7.32;86.79
9746;BME280;4912;50.836;12.958;2023-04-02T06:24:59;97568.75;;;7.24;85.08
9746;BME280;4912;50.836;12.958;2023-04-02T06:27:39;97574.69;;;7.22;85.77
9746;BME280;4912;50.836;12.958;2023-04-02T06:30:17;97594.28;;;7.24;85.90
9746;BME280;4912;50.836;12.958;2023-04-02T06:32:53;97596.25;;;7.24;85.22
9746;BME280;4912;50.836;12.958;2023-04-02T06:35:25;97588.94;;;7.30;84.01
9746;BME280;4912;50.836;12.958;2023-04-02T06:38:03;97594.06;;;7.19;82.65
9746;BME280;4912;50.836;12.958;2023-04-02T06:40:40;97608.41;;;7.14;83.09
9746;BME280;4912;50.836;12.958;2023-04-02T06:43:31;97615.16;;;7.13;83.42
9746;BME280;4912;50.836;12.958;2023-04-02T06:46:19;97619.75;;;7.16;83.91
9746;BME280;4912;50.836;12.958;2023-04-02T06:49:16;97631.69;;;7.22;83.68
9746;BME280;4912;50.836;12.958;2023-04-02T06:51:56;97625.56;;;7.18;82.32
9746;BME280;4912;50.836;12.958;2023-04-02T06:54:29;97638.16;;;7.28;82.03
9746;BME280;4912;50.836;12.958;2023-04-02T06:57:05;97642.19;;;7.36;81.61
9746;BME280;4912;50.836;12.958;2023-04-02T06:59:39;97644.81;;;7.39;81.03
9746;BME280;4912;50.836;12.958;2023-04-02T07:02:22;97650.47;;;7.45;81.77
9746;BME280;4912;50.836;12.958;2023-04-02T07:05:05;97659.69;;;7.51;81.74
9746;BME280;4912;50.836;12.958;2023-04-02T07:07:43;97660.03;;;7.53;79.77
9746;BME280;4912;50.836;12.958;2023-04-02T07:10:13;97664.28;;;7.54;78.54
9746;BME280;4912;50.836;12.958;2023-04-02T07:12:47;97669.41;;;7.65;78.69
9746;BME280;4912;50.836;12.958;2023-04-02T07:15:20;97669.88;;;7.72;78.29
9746;BME280;4912;50.836;12.958;2023-04-02T07:17:52;97672.25;;;7.83;78.32
9746;BME280;4912;50.836;12.958;2023-04-02T07:20:30;97678.56;;;7.93;77.37
9746;BME280;4912;50.836;12.958;2023-04-02T07:23:07;97687.44;;;7.97;77.16
9746;BME280;4912;50.836;12.958;2023-04-02T07:25:38;97693.53;;;7.92;76.39
9746;BME280;4912;50.836;12.958;2023-04-02T07:28:10;97679.16;;;7.88;77.47
9746;BME280;4912;50.836;12.958;2023-04-02T07:30:42;97703.28;;;7.83;77.88
9746;BME280;4912;50.836;12.958;2023-04-02T07:33:13;97705.13;;;7.77;77.49
9746;BME280;4912;50.836;12.958;2023-04-02T07:35:48;97707.22;;;7.73;77.22
9746;BME280;4912;50.836;12.958;2023-04-02T07:38:19;97718.56;;;7.75;77.97
9746;BME280;4912;50.836;12.958;2023-04-02T07:40:50;97729.22;;;7.64;78.41
9746;BME280;4912;50.836;12.958;2023-04-02T07:43:20;97732.81;;;7.52;78.22
9746;BME280;4912;50.836;12.958;2023-04-02T07:45:51;97731.78;;;7.37;78.44
9746;BME280;4912;50.836;12.958;2023-04-02T07:48:22;97742.41;;;7.26;79.38
9746;BME280;4912;50.836;12.958;2023-04-02T07:50:55;97744.53;;;7.22;80.59
9746;BME280;4912;50.836;12.958;2023-04-02T07:53:28;97750.19;;;7.06;79.62
9746;BME280;4912;50.836;12.958;2023-04-02T07:56:02;97755.47;;;7.13;79.75
9746;BME280;4912;50.836;12.958;2023-04-02T07:58:33;97765.22;;;7.14;79.06
9746;BME280;4912;50.836;12.958;2023-04-02T08:01:15;97765.91;;;7.18;79.37
9746;BME280;4912;50.836;12.958;2023-04-02T08:03:46;97774.16;;;7.18;80.11
9746;BME280;4912;50.836;12.958;2023-04-02T08:06:26;97780.88;;;7.17;80.39
9746;BME280;4912;50.836;12.958;2023-04-02T08:08:56;97775.16;;;7.11;80.27
9746;BME280;4912;50.836;12.958;2023-04-02T08:11:27;97788.91;;;7.11;80.61
9746;BME280;4912;50.836;12.958;2023-04-02T08:13:58;97793.00;;;7.07;80.38
9746;BME280;4912;50.836;12.958;2023-04-02T08:16:42;97798.41;;;6.97;80.42
9746;BME280;4912;50.836;12.958;2023-04-02T08:19:14;97802.06;;;6.94;80.48
9746;BME280;4912;50.836;12.958;2023-04-02T08:21:48;97803.81;;;6.88;80.88
9746;BME280;4912;50.836;12.958;2023-04-02T08:24:20;97805.47;;;6.86;80.81
9746;BME280;4912;50.836;12.958;2023-04-02T08:26:51;97814.28;;;6.81;80.70
9746;BME280;4912;50.836;12.958;2023-04-02T08:29:22;97813.19;;;6.78;81.78
9746;BME280;4912;50.836;12.958;2023-04-02T08:32:16;97816.91;;;6.72;81.99
9746;BME280;4912;50.836;12.958;2023-04-02T08:35:13;97821.78;;;6.68;81.37
9746;BME280;4912;50.836;12.958;2023-04-02T08:37:48;97833.53;;;6.68;81.47
9746;BME280;4912;50.836;12.958;2023-04-02T08:40:36;97838.81;;;6.63;80.80
9746;BME280;4912;50.836;12.958;2023-04-02T08:43:46;97844.75;;;6.61;81.01
9746;BME280;4912;50.836;12.958;2023-04-02T08:47:05;97847.84;;;6.63;81.74
9746;BME280;4912;50.836;12.958;2023-04-02T08:50:13;97862.66;;;6.66;81.18
9746;BME280;4912;50.836;12.958;2023-04-02T08:53:02;97855.19;;;6.66;80.57
9746;BME280;4912;50.836;12.958;2023-04-02T08:55:39;97864.56;;;6.69;80.91
9746;BME280;4912;50.836;12.958;2023-04-02T08:58:45;97874.56;;;6.75;80.40
9746;BME280;4912;50.836;12.958;2023-04-02T09:01:37;97881.91;;;6.78;80.34
9746;BME280;4912;50.836;12.958;2023-04-02T09:04:25;97883.69;;;6.85;79.71
9746;BME280;4912;50.836;12.958;2023-04-02T09:07:38;97881.06;;;6.94;79.68
9746;BME280;4912;50.836;12.958;2023-04-02T09:10:18;97887.19;;;6.98;78.80
9746;BME280;4912;50.836;12.958;2023-04-02T09:20:27;97905.09;;;7.15;77.43
9746;BME280;4912;50.836;12.958;2023-04-02T09:22:58;97902.34;;;7.28;77.10
9746;BME280;4912;50.836;12.958;2023-04-02T09:25:29;97901.97;;;7.38;76.49
9746;BME280;4912;50.836;12.958;2023-04-02T09:28:03;97902.19;;;7.44;75.98
9746;BME280;4912;50.836;12.958;2023-04-02T09:30:54;97912.97;;;7.51;76.60
9746;BME280;4912;50.836;12.958;2023-04-02T09:33:48;97915.38;;;7.49;75.83
9746;BME280;4912;50.836;12.958;2023-04-02T09:36:37;97919.59;;;7.41;74.70
9746;BME280;4912;50.836;12.958;2023-04-02T09:39:15;97922.78;;;7.39;74.38
9746;BME280;4912;50.836;12.958;2023-04-02T09:41:48;97934.13;;;7.42;74.55
9746;BME280;4912;50.836;12.958;2023-04-02T09:44:31;97935.34;;;7.40;74.03
9746;BME280;4912;50.836;12.958;2023-04-02T09:47:04;97939.09;;;7.47;73.21
9746;BME280;4912;50.836;12.958;2023-04-02T09:49:39;97946.44;;;7.50;73.60
9746;BME280;4912;50.836;12.958;2023-04-02T09:52:26;97958.88;;;7.54;72.62
9746;BME280;4912;50.836;12.958;2023-04-02T09:55:24;97961.88;;;7.47;72.35
9746;BME280;4912;50.836;12.958;2023-04-02T09:58:11;97963.84;;;7.47;73.04
9746;BME280;4912;50.836;12.958;2023-04-02T10:00:49;97982.34;;;7.46;71.74
9746;BME280;4912;50.836;12.958;2023-04-02T10:03:24;97982.03;;;7.44;71.06
9746;BME280;4912;50.836;12.958;2023-04-02T10:06:07;97992.25;;;7.44;71.48
9746;BME280;4912;50.836;12.958;2023-04-02T10:08:43;97991.81;;;7.45;71.86
9746;BME280;4912;50.836;12.958;2023-04-02T10:11:17;98001.63;;;7.46;71.81
9746;BME280;4912;50.836;12.958;2023-04-02T10:13:59;98000.84;;;7.46;70.86
9746;BME280;4912;50.836;12.958;2023-04-02T10:16:32;98013.41;;;7.47;69.88
9746;BME280;4912;50.836;12.958;2023-04-02T10:19:22;98013.28;;;7.50;68.75
9746;BME280;4912;50.836;12.958;2023-04-02T10:22:01;98020.91;;;7.46;67.11
9746;BME280;4912;50.836;12.958;2023-04-02T10:24:37;98027.59;;;7.45;67.50
9746;BME280;4912;50.836;12.958;2023-04-02T10:27:15;98025.19;;;7.47;68.58
9746;BME280;4912;50.836;12.958;2023-04-02T10:30:10;98023.88;;;7.52;68.02
9746;BME280;4912;50.836;12.958;2023-04-02T10:32:47;98029.13;;;7.71;67.54
9746;BME280;4912;50.836;12.958;2023-04-02T10:35:37;98028.22;;;7.87;66.51
9746;BME280;4912;50.836;12.958;2023-04-02T10:38:18;98036.69;;;7.93;65.67
9746;BME280;4912;50.836;12.958;2023-04-02T10:40:58;98036.69;;;7.93;66.61
9746;BME280;4912;50.836;12.958;2023-04-02T10:46:52;98050.69;;;7.86;66.36
9746;BME280;4912;50.836;12.958;2023-04-02T10:49:32;98056.31;;;7.82;67.41
9746;BME280;4912;50.836;12.958;2023-04-02T10:52:15;98057.66;;;7.77;67.40
9746;BME280;4912;50.836;12.958;2023-04-02T10:54:50;98063.38;;;7.70;67.82
9746;BME280;4912;50.836;12.958;2023-04-02T10:57:32;98065.94;;;7.65;67.64
9746;BME280;4912;50.836;12.958;2023-04-02T11:00:13;98071.75;;;7.54;67.37
9746;BME280;4912;50.836;12.958;2023-04-02T11:02:52;98075.94;;;7.46;68.58
9746;BME280;4912;50.836;12.958;2023-04-02T11:05:31;98080.13;;;7.38;69.67
9746;BME280;4912;50.836;12.958;2023-04-02T11:08:13;98099.59;;;7.31;69.63
9746;BME280;4912;50.836;12.958;2023-04-02T11:10:49;98098.31;;;7.35;70.32
9746;BME280;4912;50.836;12.958;2023-04-02T11:13:27;98103.34;;;7.24;69.33
9746;BME280;4912;50.836;12.958;2023-04-02T11:16:01;98114.44;;;7.21;69.54
9746;BME280;4912;50.836;12.958;2023-04-02T11:18:33;98119.63;;;7.19;69.82
9746;BME280;4912;50.836;12.958;2023-04-02T11:21:06;98115.34;;;7.18;70.65
9746;BME280;4912;50.836;12.958;2023-04-02T11:23:55;98122.06;;;7.17;70.65
9746;BME280;4912;50.836;12.958;2023-04-02T11:26:37;98121.63;;;7.18;70.74
9746;BME280;4912;50.836;12.958;2023-04-02T11:29:16;98120.06;;;7.17;70.43
9746;BME280;4912;50.836;12.958;2023-04-02T11:32:11;98121.03;;;7.11;70.71
9746;BME280;4912;50.836;12.958;2023-04-02T11:35:02;98125.00;;;7.10;70.91
9746;BME280;4912;50.836;12.958;2023-04-02T11:37:56;98131.94;;;7.14;71.04
9746;BME280;4912;50.836;12.958;2023-04-02T11:40:46;98131.84;;;7.18;71.52
9746;BME280;4912;50.836;12.958;2023-04-02T11:43:46;98132.41;;;7.13;71.80
9746;BME280;4912;50.836;12.958;2023-04-02T11:46:46;98133.91;;;7.14;71.69
9746;BME280;4912;50.836;12.958;2023-04-02T11:49:42;98139.41;;;7.14;71.53
9746;BME280;4912;50.836;12.958;2023-04-02T11:52:37;98148.44;;;7.14;71.73
9746;BME280;4912;50.836;12.958;2023-04-02T11:55:26;98157.81;;;7.17;71.05
9746;BME280;4912;50.836;12.958;2023-04-02T11:58:19;98154.84;;;7.11;71.48
9746;BME280;4912;50.836;12.958;2023-04-02T12:04:42;98173.69;;;6.96;70.06
9746;BME280;4912;50.836;12.958;2023-04-02T12:07:32;98175.13;;;6.88;70.62
9746;BME280;4912;50.836;12.958;2023-04-02T12:10:19;98174.25;;;6.91;70.52
9746;BME280;4912;50.836;12.958;2023-04-02T12:12:51;98179.56;;;6.98;70.27
9746;BME280;4912;50.836;12.958;2023-04-02T12:15:35;98167.72;;;7.14;70.46
9746;BME280;4912;50.836;12.958;2023-04-02T12:18:13;98186.81;;;7.34;70.16
9746;BME280;4912;50.836;12.958;2023-04-02T12:20:50;98177.63;;;7.53;69.89
9746;BME280;4912;50.836;12.958;2023-04-02T12:23:25;98184.78;;;7.63;69.68
9746;BME280;4912;50.836;12.958;2023-04-02T12:25:59;98186.97;;;7.68;68.71
9746;BME280;4912;50.836;12.958;2023-04-02T12:28:33;98181.69;;;7.61;68.21
9746;BME280;4912;50.836;12.958;2023-04-02T12:31:11;98190.50;;;7.56;68.36
9746;BME280;4912;50.836;12.958;2023-04-02T12:33:44;98195.00;;;7.50;68.58
9746;BME280;4912;50.836;12.958;2023-04-02T12:36:21;98197.16;;;7.43;69.33
9746;BME280;4912;50.836;12.958;2023-04-02T12:38:54;98205.53;;;7.39;69.64
9746;BME280;4912;50.836;12.958;2023-04-02T12:41:27;98215.19;;;7.31;69.79
9746;BME280;4912;50.836;12.958;2023-04-02T12:44:00;98216.75;;;7.32;69.81
9746;BME280;4912;50.836;12.958;2023-04-02T12:46:33;98218.66;;;7.35;69.14
9746;BME280;4912;50.836;12.958;2023-04-02T12:49:06;98211.41;;;7.41;68.55
9746;BME280;4912;50.836;12.958;2023-04-02T12:51:40;98220.94;;;7.36;69.06
9746;BME280;4912;50.836;12.958;2023-04-02T12:54:14;98226.22;;;7.31;68.75
9746;BME280;4912;50.836;12.958;2023-04-02T12:56:47;98225.88;;;7.29;69.02
9746;BME280;4912;50.836;12.958;2023-04-02T12:59:30;98225.19;;;7.25;69.25
9746;BME280;4912;50.836;12.958;2023-04-02T13:02:17;98227.63;;;7.23;70.11
9746;BME280;4912;50.836;12.958;2023-04-02T13:04:49;98232.00;;;7.20;70.11
9746;BME280;4912;50.836;12.958;2023-04-02T13:07:25;98233.91;;;7.23;70.05
9746;BME280;4912;50.836;12.958;2023-04-02T13:09:58;98235.94;;;7.35;68.89
9746;BME280;4912;50.836;12.958;2023-04-02T13:12:32;98245.41;;;7.34;69.51
9746;BME280;4912;50.836;12.958;2023-04-02T13:15:06;98237.44;;;7.36;69.12
9746;BME280;4912;50.836;12.958;2023-04-02T13:17:41;98246.84;;;7.39;69.37
9746;BME280;4912;50.836;12.958;2023-04-02T13:20:31;98249.03;;;7.44;69.67
9746;BME280;4912;50.836;12.958;2023-04-02T13:23:30;98242.91;;;7.53;68.70
9746;BME280;4912;50.836;12.958;2023-04-02T13:26:12;98243.03;;;7.62;68.44
9746;BME280;4912;50.836;12.958;2023-04-02T13:28:58;98247.44;;;7.72;68.29
9746;BME280;4912;50.836;12.958;2023-04-02T13:31:31;98245.84;;;7.87;67.96
9746;BME280;4912;50.836;12.958;2023-04-02T13:34:01;98244.97;;;8.03;67.10
9746;BME280;4912;50.836;12.958;2023-04-02T13:36:32;98253.25;;;8.15;66.54
9746;BME280;4912;50.836;12.958;2023-04-02T13:39:06;98246.09;;;8.18;64.82
9746;BME280;4912;50.836;12.958;2023-04-02T13:41:39;98248.72;;;8.09;65.44
9746;BME280;4912;50.836;12.958;2023-04-02T13:44:18;98252.56;;;7.99;65.69
9746;BME280;4912;50.836;12.958;2023-04-02T13:46:50;98255.97;;;7.90;65.07
9746;BME280;4912;50.836;12.958;2023-04-02T13:49:22;98254.53;;;7.86;65.78
9746;BME280;4912;50.836;12.958;2023-04-02T13:51:54;98259.47;;;7.78;65.89
9746;BME280;4912;50.836;12.958;2023-04-02T13:54:32;98271.63;;;7.80;65.96
9746;BME280;4912;50.836;12.958;2023-04-02T13:57:10;98267.19;;;7.70;65.46
9746;BME280;4912;50.836;12.958;2023-04-02T13:59:40;98272.50;;;7.77;65.80
9746;BME280;4912;50.836;12.958;2023-04-02T14:02:14;98273.06;;;7.85;66.54
9746;BME280;4912;50.836;12.958;2023-04-02T14:04:48;98274.81;;;7.92;66.12
9746;BME280;4912;50.836;12.958;2023-04-02T14:07:33;98276.38;;;7.93;66.21
9746;BME280;4912;50.836;12.958;2023-04-02T14:10:20;98278.56;;;7.85;65.35
9746;BME280;4912;50.836;12.958;2023-04-02T14:13:08;98278.13;;;7.87;65.44
9746;BME280;4912;50.836;12.958;2023-04-02T14:15:56;98284.28;;;7.91;65.93
9746;BME280;4912;50.836;12.958;2023-04-02T14:18:52;98295.53;;;7.83;65.53
9746;BME280;4912;50.836;12.958;2023-04-02T14:21:38;98302.25;;;7.82;65.53
9746;BME280;4912;50.836;12.958;2023-04-02T14:24:17;98296.84;;;7.79;65.06
9746;BME280;4912;50.836;12.958;2023-04-02T14:27:00;98302.47;;;7.75;65.57
9746;BME280;4912;50.836;12.958;2023-04-02T14:29:41;98305.63;;;7.74;65.72
9746;BME280;4912;50.836;12.958;2023-04-02T14:32:19;98297.16;;;7.68;65.29
9746;BME280;4912;50.836;12.958;2023-04-02T14:34:57;98300.31;;;7.67;65.77
9746;BME280;4912;50.836;12.958;2023-04-02T14:37:40;98299.56;;;7.66;65.76
9746;BME280;4912;50.836;12.958;2023-04-02T14:40:19;98293.50;;;7.59;66.76
9746;BME280;4912;50.836;12.958;2023-04-02T14:42:58;98303.16;;;7.51;66.61
9746;BME280;4912;50.836;12.958;2023-04-02T14:45:47;98308.06;;;7.43;66.07